Time;durP1;ratioP1;P1;durP2;ratioP2;P2;SDS_P1;SDS_P2;PMS_P1;PMS_P2;Temp;Humidity;BMP_temperature;BMP_pressure;BME280_temperature;BME280_humidity;BME280_pressure;Samples;Min_cycle;Max_cycle;Signal;HPM_P1;HPM_P2
2023/05/18 00:00:22;;;;;;;0.60;0.60;;;;;;;;;;5058162;28;20179;-81
2023/05/18 00:02:48;;;;;;;0.60;0.60;;;;;;;;;;5057850;28;20215;-81
2023/05/18 00:05:16;;;;;;;0.80;0.80;;;;;;;;;;5058360;28;20179;-80
2023/05/18 00:07:42;;;;;;;0.90;0.90;;;;;;;;;;5058192;28;20194;-81
2023/05/18 00:10:09;;;;;;;0.70;0.70;;;;;;;;;;5058324;28;20182;-81
2023/05/18 00:12:35;;;;;;;0.77;0.77;;;;;;;;;;5057553;28;20195;-81
2023/05/18 00:15:01;;;;;;;0.70;0.70;;;;;;;;;;5058219;28;20180;-80
2023/05/18 00:17:27;;;;;;;0.70;0.70;;;;;;;;;;5057474;28;20756;-81
2023/05/18 00:19:53;;;;;;;0.70;0.70;;;;;;;;;;5057719;28;20212;-81
2023/05/18 00:22:19;;;;;;;0.70;0.70;;;;;;;;;;5056858;28;20572;-81
2023/05/18 00:24:45;;;;;;;0.73;0.73;;;;;;;;;;5056570;28;20638;-81
2023/05/18 00:27:11;;;;;;;0.70;0.70;;;;;;;;;;5056506;28;20237;-81
2023/05/18 00:29:37;;;;;;;0.70;0.70;;;;;;;;;;5057285;28;20179;-80
2023/05/18 00:32:03;;;;;;;0.60;0.60;;;;;;;;;;5056327;28;20232;-81
2023/05/18 00:34:29;;;;;;;0.70;0.70;;;;;;;;;;5057143;28;20251;-80
2023/05/18 00:36:55;;;;;;;0.63;0.63;;;;;;;;;;5057098;28;20238;-80
2023/05/18 00:39:21;;;;;;;0.70;0.70;;;;;;;;;;5057030;28;20195;-81
2023/05/18 00:41:47;;;;;;;0.70;0.70;;;;;;;;;;5056945;28;20214;-80
2023/05/18 00:44:13;;;;;;;0.70;0.70;;;;;;;;;;5056904;28;20207;-81
2023/05/18 00:46:40;;;;;;;0.60;0.60;;;;;;;;;;5057164;28;20274;-81
2023/05/18 00:49:06;;;;;;;0.70;0.70;;;;;;;;;;5056817;28;20236;-81
2023/05/18 00:51:32;;;;;;;0.70;0.70;;;;;;;;;;5056434;28;20179;-81
2023/05/18 00:53:59;;;;;;;0.80;0.80;;;;;;;;;;5056362;28;20194;-81
2023/05/18 00:56:26;;;;;;;0.70;0.70;;;;;;;;;;5056404;28;22137;-81
2023/05/18 00:58:56;;;;;;;0.70;0.70;;;;;;;;;;5056513;28;20176;-80
2023/05/18 01:01:29;;;;;;;0.60;0.60;;;;;;;;;;5056814;28;20516;-81
2023/05/18 01:03:57;;;;;;;0.60;0.60;;;;;;;;;;5055880;28;20237;-81
2023/05/18 01:06:26;;;;;;;0.63;0.63;;;;;;;;;;5057085;28;20181;-81
2023/05/18 01:08:53;;;;;;;0.70;0.70;;;;;;;;;;5056868;28;20730;-81
2023/05/18 01:11:25;;;;;;;0.60;0.60;;;;;;;;;;5057046;28;20182;-81
2023/05/18 01:14:07;;;;;;;0.70;0.70;;;;;;;;;;5056848;28;20210;-81
2023/05/18 01:16:36;;;;;;;0.70;0.70;;;;;;;;;;5056518;28;20226;-81
2023/05/18 01:19:24;;;;;;;0.70;0.70;;;;;;;;;;5057323;28;20185;-81
2023/05/18 01:21:57;;;;;;;0.80;0.80;;;;;;;;;;5056714;28;20195;-81
2023/05/18 01:24:41;;;;;;;0.60;0.60;;;;;;;;;;5057134;28;20196;-81
2023/05/18 01:27:08;;;;;;;0.77;0.77;;;;;;;;;;5057163;28;20189;-81
2023/05/18 01:29:34;;;;;;;0.90;0.90;;;;;;;;;;5057591;28;20172;-81
2023/05/18 01:32:00;;;;;;;0.80;0.80;;;;;;;;;;5057141;28;20172;-81
2023/05/18 01:34:26;;;;;;;0.90;0.90;;;;;;;;;;5057567;28;20185;-80
2023/05/18 01:36:52;;;;;;;0.73;0.73;;;;;;;;;;5057326;28;20206;-80
2023/05/18 01:39:18;;;;;;;0.80;0.80;;;;;;;;;;5057249;28;20290;-81
2023/05/18 01:42:05;;;;;;;0.70;0.70;;;;;;;;;;5057693;28;20167;-81
2023/05/18 01:44:36;;;;;;;0.70;0.70;;;;;;;;;;5058269;28;20175;-81
2023/05/18 01:47:11;;;;;;;0.83;0.83;;;;;;;;;;5058818;28;20229;-81
2023/05/18 01:49:55;;;;;;;0.70;0.70;;;;;;;;;;5068466;28;20169;-79
2023/05/18 01:52:26;;;;;;;0.60;0.60;;;;;;;;;;5071071;28;20195;-80
2023/05/18 01:54:54;;;;;;;0.70;0.70;;;;;;;;;;5071380;28;20197;-80
2023/05/18 01:57:24;;;;;;;0.80;0.80;;;;;;;;;;5070835;28;20210;-79
2023/05/18 01:59:51;;;;;;;0.77;0.77;;;;;;;;;;5068387;28;20167;-80
2023/05/18 02:02:17;;;;;;;0.83;0.83;;;;;;;;;;5058153;28;20214;-81
2023/05/18 02:04:43;;;;;;;0.70;0.70;;;;;;;;;;5058876;28;20236;-81
2023/05/18 02:07:09;;;;;;;0.70;0.70;;;;;;;;;;5058728;28;20265;-81
2023/05/18 02:09:35;;;;;;;0.70;0.70;;;;;;;;;;5058849;28;20206;-80
2023/05/18 02:12:01;;;;;;;0.80;0.80;;;;;;;;;;5058753;28;20179;-80
2023/05/18 02:14:27;;;;;;;0.80;0.80;;;;;;;;;;5058832;28;20193;-81
2023/05/18 02:16:53;;;;;;;0.80;0.80;;;;;;;;;;5058644;28;20220;-81
2023/05/18 02:19:20;;;;;;;0.70;0.70;;;;;;;;;;5059064;28;20202;-81
2023/05/18 02:21:45;;;;;;;0.80;0.80;;;;;;;;;;5058678;28;20203;-81
2023/05/18 02:24:12;;;;;;;0.80;0.80;;;;;;;;;;5061738;28;20210;-79
2023/05/18 02:26:38;;;;;;;0.80;0.80;;;;;;;;;;5066692;28;20171;-81
2023/05/18 02:29:10;;;;;;;0.80;0.80;;;;;;;;;;5058963;28;20179;-81
2023/05/18 02:31:36;;;;;;;0.80;0.80;;;;;;;;;;5060260;28;20176;-81
2023/05/18 02:34:02;;;;;;;0.70;0.70;;;;;;;;;;5070677;28;20270;-79
2023/05/18 02:36:35;;;;;;;0.80;0.80;;;;;;;;;;5076096;28;20159;-80
2023/05/18 02:39:02;;;;;;;0.60;0.60;;;;;;;;;;5076035;28;20179;-79
2023/05/18 02:41:28;;;;;;;0.70;0.70;;;;;;;;;;5076311;28;20175;-79
2023/05/18 02:43:54;;;;;;;0.87;0.87;;;;;;;;;;5075667;28;20206;-79
2023/05/18 02:46:20;;;;;;;0.63;0.63;;;;;;;;;;5076265;28;20174;-80
2023/05/18 02:48:46;;;;;;;0.70;0.70;;;;;;;;;;5076111;28;20166;-79
2023/05/18 02:51:12;;;;;;;0.83;0.83;;;;;;;;;;5076148;28;20200;-80
2023/05/18 02:53:38;;;;;;;0.63;0.63;;;;;;;;;;5074471;28;20194;-79
2023/05/18 02:56:05;;;;;;;0.80;0.80;;;;;;;;;;5076078;28;20183;-79
2023/05/18 02:58:31;;;;;;;0.80;0.80;;;;;;;;;;5067213;28;20222;-81
2023/05/18 03:00:59;;;;;;;0.80;0.80;;;;;;;;;;5056234;28;20186;-80
2023/05/18 03:03:25;;;;;;;0.90;0.90;;;;;;;;;;5055209;28;20198;-81
2023/05/18 03:05:54;;;;;;;0.70;0.70;;;;;;;;;;5055394;28;20175;-82
2023/05/18 03:08:21;;;;;;;0.90;0.90;;;;;;;;;;5055515;28;20683;-80
2023/05/18 03:10:47;;;;;;;0.70;0.70;;;;;;;;;;5055776;28;20258;-81
2023/05/18 03:13:13;;;;;;;0.80;0.80;;;;;;;;;;5054694;28;20243;-80
2023/05/18 03:15:40;;;;;;;0.80;0.80;;;;;;;;;;5054866;28;20175;-81
2023/05/18 03:18:06;;;;;;;0.80;0.80;;;;;;;;;;5055807;28;20642;-80
2023/05/18 03:20:32;;;;;;;0.90;0.90;;;;;;;;;;5055128;28;20183;-81
2023/05/18 03:22:58;;;;;;;0.80;0.80;;;;;;;;;;5054585;28;20221;-81
2023/05/18 03:25:24;;;;;;;0.70;0.70;;;;;;;;;;5055448;28;20178;-81
2023/05/18 03:27:53;;;;;;;0.80;0.80;;;;;;;;;;5054339;28;20617;-80
2023/05/18 03:30:19;;;;;;;0.90;0.90;;;;;;;;;;5054321;28;20183;-81
2023/05/18 03:32:48;;;;;;;0.80;0.80;;;;;;;;;;5052965;28;20195;-80
2023/05/18 03:35:14;;;;;;;0.90;0.90;;;;;;;;;;5054029;28;20665;-80
2023/05/18 03:37:41;;;;;;;0.80;0.80;;;;;;;;;;5054238;28;20233;-81
2023/05/18 03:40:11;;;;;;;0.80;0.80;;;;;;;;;;5054753;28;20176;-80
2023/05/18 03:42:37;;;;;;;0.70;0.70;;;;;;;;;;5053884;28;20642;-80
2023/05/18 03:45:04;;;;;;;0.80;0.80;;;;;;;;;;5054329;28;20236;-81
2023/05/18 03:47:30;;;;;;;0.83;0.83;;;;;;;;;;5054619;28;20187;-81
2023/05/18 03:49:55;;;;;;;0.80;0.80;;;;;;;;;;5054318;28;20192;-81
2023/05/18 03:52:22;;;;;;;0.90;0.90;;;;;;;;;;5053826;28;20199;-80
2023/05/18 03:54:48;;;;;;;0.80;0.80;;;;;;;;;;5054263;28;20181;-80
2023/05/18 03:57:18;;;;;;;0.80;0.80;;;;;;;;;;5054671;28;20214;-81
2023/05/18 03:59:44;;;;;;;0.70;0.70;;;;;;;;;;5054592;28;20199;-80
2023/05/18 04:02:11;;;;;;;0.80;0.80;;;;;;;;;;5054211;28;20736;-80
2023/05/18 04:04:40;;;;;;;0.80;0.80;;;;;;;;;;5054328;28;20681;-80
2023/05/18 04:07:07;;;;;;;0.70;0.70;;;;;;;;;;5057848;28;20183;-81
2023/05/18 04:09:33;;;;;;;0.70;0.70;;;;;;;;;;5057932;28;20182;-85
2023/05/18 04:11:59;;;;;;;0.80;0.80;;;;;;;;;;5057051;28;20172;-81
2023/05/18 04:14:26;;;;;;;0.70;0.70;;;;;;;;;;5058055;28;20532;-80
2023/05/18 04:16:53;;;;;;;0.80;0.80;;;;;;;;;;5057513;28;20215;-80
2023/05/18 04:19:20;;;;;;;0.70;0.70;;;;;;;;;;5057597;28;20631;-81
2023/05/18 04:21:47;;;;;;;0.80;0.80;;;;;;;;;;5057501;28;20646;-81
2023/05/18 04:24:15;;;;;;;0.80;0.80;;;;;;;;;;5056769;28;20203;-80
2023/05/18 04:26:41;;;;;;;0.70;0.70;;;;;;;;;;5057562;28;20247;-80
2023/05/18 04:29:09;;;;;;;0.80;0.80;;;;;;;;;;5056757;28;20564;-80
2023/05/18 04:31:36;;;;;;;0.70;0.70;;;;;;;;;;5057568;28;20184;-80
2023/05/18 04:34:02;;;;;;;0.73;0.73;;;;;;;;;;5056115;28;20211;-80
2023/05/18 04:36:29;;;;;;;0.70;0.70;;;;;;;;;;5056714;28;20547;-86
2023/05/18 04:38:59;;;;;;;0.60;0.60;;;;;;;;;;5056877;28;20181;-80
2023/05/18 04:41:25;;;;;;;0.60;0.60;;;;;;;;;;5056393;28;20183;-80
2023/05/18 04:43:52;;;;;;;0.70;0.70;;;;;;;;;;5056333;28;20265;-80
2023/05/18 04:46:20;;;;;;;0.60;0.60;;;;;;;;;;5056635;28;20679;-81
2023/05/18 04:48:48;;;;;;;0.60;0.60;;;;;;;;;;5056642;28;20183;-79
2023/05/18 04:51:20;;;;;;;0.67;0.67;;;;;;;;;;5056955;28;20186;-81
2023/05/18 04:53:48;;;;;;;0.50;0.50;;;;;;;;;;5056377;28;20198;-80
2023/05/18 04:56:14;;;;;;;0.70;0.70;;;;;;;;;;5056903;28;20175;-80
2023/05/18 04:58:44;;;;;;;0.60;0.60;;;;;;;;;;5057300;28;20256;-80
2023/05/18 05:01:10;;;;;;;0.60;0.60;;;;;;;;;;5056367;28;20178;-80
2023/05/18 05:03:36;;;;;;;0.50;0.50;;;;;;;;;;5055346;28;20268;-81
2023/05/18 05:06:02;;;;;;;0.60;0.60;;;;;;;;;;5055038;28;20191;-81
2023/05/18 05:08:28;;;;;;;0.50;0.50;;;;;;;;;;5055224;28;20175;-80
2023/05/18 05:10:54;;;;;;;0.60;0.60;;;;;;;;;;5055752;28;20229;-80
2023/05/18 05:13:20;;;;;;;0.57;0.57;;;;;;;;;;5055274;28;20693;-81
2023/05/18 05:15:46;;;;;;;0.67;0.67;;;;;;;;;;5055674;28;20259;-80
2023/05/18 05:18:12;;;;;;;0.50;0.50;;;;;;;;;;5054414;28;20249;-81
2023/05/18 05:20:38;;;;;;;0.50;0.50;;;;;;;;;;5055880;28;20642;-80
2023/05/18 05:23:05;;;;;;;0.70;0.70;;;;;;;;;;5055305;28;20214;-80
2023/05/18 05:25:31;;;;;;;0.70;0.70;;;;;;;;;;5056137;28;20178;-80
2023/05/18 05:27:57;;;;;;;0.60;0.60;;;;;;;;;;5062347;28;20175;-80
2023/05/18 05:30:23;;;;;;;0.60;0.60;;;;;;;;;;5062026;28;20660;-80
2023/05/18 05:32:49;;;;;;;0.50;0.50;;;;;;;;;;5061116;28;20207;-79
2023/05/18 05:35:15;;;;;;;0.57;0.57;;;;;;;;;;5060016;28;20168;-79
2023/05/18 05:37:41;;;;;;;0.63;0.63;;;;;;;;;;5058208;28;20258;-79
2023/05/18 05:40:08;;;;;;;0.60;0.60;;;;;;;;;;5059863;28;20179;-79
2023/05/18 05:42:35;;;;;;;0.60;0.60;;;;;;;;;;5057451;28;20603;-80
2023/05/18 05:45:01;;;;;;;0.70;0.70;;;;;;;;;;5055701;28;20182;-81
2023/05/18 05:47:27;;;;;;;0.70;0.70;;;;;;;;;;5055210;28;20283;-79
2023/05/18 05:49:54;;;;;;;0.60;0.60;;;;;;;;;;5056201;28;20530;-81
2023/05/18 05:52:20;;;;;;;0.63;0.63;;;;;;;;;;5055213;28;20314;-80
2023/05/18 05:54:47;;;;;;;0.57;0.57;;;;;;;;;;5055615;28;20219;-80
2023/05/18 05:57:13;;;;;;;0.60;0.60;;;;;;;;;;5055252;28;20298;-80
2023/05/18 05:59:38;;;;;;;0.67;0.67;;;;;;;;;;5055513;28;20281;-80
2023/05/18 06:02:05;;;;;;;0.60;0.60;;;;;;;;;;5055269;28;20622;-80
2023/05/18 06:04:31;;;;;;;0.57;0.57;;;;;;;;;;5056348;28;20237;-81
2023/05/18 06:06:57;;;;;;;0.50;0.50;;;;;;;;;;5055916;28;20210;-80
2023/05/18 06:09:23;;;;;;;0.57;0.57;;;;;;;;;;5056048;28;20225;-82
2023/05/18 06:11:49;;;;;;;0.63;0.63;;;;;;;;;;5049596;28;20563;-81
2023/05/18 06:14:15;;;;;;;0.70;0.70;;;;;;;;;;5054390;28;20199;-81
2023/05/18 06:16:41;;;;;;;0.60;0.60;;;;;;;;;;5056304;28;20227;-81
2023/05/18 06:19:07;;;;;;;0.67;0.67;;;;;;;;;;5055789;28;20172;-81
2023/05/18 06:21:33;;;;;;;0.60;0.60;;;;;;;;;;5045509;28;20191;-82
2023/05/18 06:24:00;;;;;;;0.60;0.60;;;;;;;;;;5044885;28;20187;-81
2023/05/18 06:26:26;;;;;;;0.60;0.60;;;;;;;;;;5045434;28;20171;-81
2023/05/18 06:28:52;;;;;;;0.53;0.53;;;;;;;;;;5049552;28;20539;-80
2023/05/18 06:31:18;;;;;;;0.60;0.60;;;;;;;;;;5059518;28;20172;-80
2023/05/18 06:33:44;;;;;;;0.60;0.60;;;;;;;;;;5058964;28;20256;-81
2023/05/18 06:36:10;;;;;;;0.60;0.60;;;;;;;;;;5059648;28;20273;-80
2023/05/18 06:38:36;;;;;;;0.60;0.60;;;;;;;;;;5058325;28;20643;-80
2023/05/18 06:41:02;;;;;;;0.70;0.70;;;;;;;;;;5059032;28;20183;-81
2023/05/18 06:43:28;;;;;;;0.80;0.80;;;;;;;;;;5044512;28;20214;-82
2023/05/18 06:45:54;;;;;;;0.60;0.60;;;;;;;;;;5043161;28;20175;-82
2023/05/18 06:48:22;;;;;;;0.50;0.50;;;;;;;;;;5036854;28;20183;-83
2023/05/18 06:50:47;;;;;;;0.60;0.60;;;;;;;;;;5035291;28;20171;-80
2023/05/18 06:53:13;;;;;;;0.50;0.50;;;;;;;;;;5033856;28;20222;-80
2023/05/18 06:55:39;;;;;;;0.60;0.60;;;;;;;;;;5034212;28;20639;-82
2023/05/18 06:58:05;;;;;;;0.70;0.70;;;;;;;;;;5033476;28;20214;-82
2023/05/18 07:00:33;;;;;;;0.53;0.53;;;;;;;;;;5039013;28;20175;-81
2023/05/18 07:03:00;;;;;;;0.53;0.53;;;;;;;;;;5042581;28;20197;-82
2023/05/18 07:05:26;;;;;;;0.60;0.60;;;;;;;;;;5047624;28;20174;-84
2023/05/18 07:07:52;;;;;;;0.50;0.50;;;;;;;;;;5041598;28;20183;-82
2023/05/18 07:10:18;;;;;;;0.60;0.60;;;;;;;;;;5048613;28;20178;-83
2023/05/18 07:12:44;;;;;;;0.60;0.60;;;;;;;;;;5049305;28;20262;-83
2023/05/18 07:15:10;;;;;;;0.50;0.50;;;;;;;;;;5046900;28;20709;-85
2023/05/18 07:17:37;;;;;;;0.50;0.50;;;;;;;;;;5045189;28;20211;-82
2023/05/18 07:20:07;;;;;;;0.50;0.50;;;;;;;;;;5043786;28;20178;-81
2023/05/18 07:22:33;;;;;;;0.50;0.50;;;;;;;;;;5032658;28;20279;-82
2023/05/18 07:25:00;;;;;;;0.60;0.60;;;;;;;;;;5034496;28;20276;-82
2023/05/18 07:27:26;;;;;;;0.50;0.50;;;;;;;;;;5034880;28;20920;-83
2023/05/18 07:29:52;;;;;;;0.40;0.40;;;;;;;;;;5038278;28;20190;-82
2023/05/18 07:32:19;;;;;;;0.50;0.50;;;;;;;;;;5035680;28;20304;-85
2023/05/18 07:34:48;;;;;;;0.40;0.40;;;;;;;;;;5041669;28;20182;-81
2023/05/18 07:37:14;;;;;;;0.50;0.50;;;;;;;;;;5042120;28;20218;-82
2023/05/18 07:39:40;;;;;;;0.43;0.43;;;;;;;;;;5037085;28;20226;-83
2023/05/18 07:42:07;;;;;;;0.30;0.30;;;;;;;;;;5054239;28;20571;-82
2023/05/18 07:44:33;;;;;;;0.50;0.50;;;;;;;;;;5054619;28;20176;-83
2023/05/18 07:46:59;;;;;;;0.40;0.40;;;;;;;;;;5051669;28;20197;-83
2023/05/18 07:49:25;;;;;;;0.40;0.40;;;;;;;;;;5057653;28;20214;-83
2023/05/18 07:51:51;;;;;;;0.30;0.30;;;;;;;;;;5058340;28;20377;-82
2023/05/18 07:54:18;;;;;;;0.40;0.40;;;;;;;;;;5058119;28;20249;-81
2023/05/18 07:56:44;;;;;;;0.30;0.30;;;;;;;;;;5047571;28;20207;-81
2023/05/18 07:59:10;;;;;;;0.30;0.30;;;;;;;;;;5047507;28;20201;-84
2023/05/18 08:01:37;;;;;;;0.40;0.40;;;;;;;;;;5046894;28;20635;-81
2023/05/18 08:04:03;;;;;;;0.40;0.40;;;;;;;;;;5046961;28;20195;-81
2023/05/18 08:06:30;;;;;;;0.30;0.30;;;;;;;;;;5051148;28;20182;-82
2023/05/18 08:08:56;;;;;;;0.40;0.40;;;;;;;;;;5058437;28;20721;-81
2023/05/18 08:11:22;;;;;;;0.30;0.30;;;;;;;;;;5058671;28;20202;-83
2023/05/18 08:13:49;;;;;;;0.30;0.30;;;;;;;;;;5056025;28;20199;-83
2023/05/18 08:16:15;;;;;;;0.40;0.40;;;;;;;;;;5049304;28;20179;-83
2023/05/18 08:18:41;;;;;;;0.50;0.50;;;;;;;;;;5043386;28;20694;-83
2023/05/18 08:21:08;;;;;;;0.40;0.40;;;;;;;;;;5037893;28;20538;-83
2023/05/18 08:23:35;;;;;;;0.40;0.40;;;;;;;;;;5037825;28;20216;-83
2023/05/18 08:26:02;;;;;;;0.40;0.40;;;;;;;;;;5038912;28;20179;-83
2023/05/18 08:28:28;;;;;;;0.30;0.30;;;;;;;;;;5037854;28;20187;-83
2023/05/18 08:30:54;;;;;;;0.30;0.30;;;;;;;;;;5037506;28;20566;-82
2023/05/18 08:33:22;;;;;;;0.40;0.40;;;;;;;;;;5042407;28;20580;-80
2023/05/18 08:35:48;;;;;;;0.40;0.40;;;;;;;;;;5055303;28;20172;-81
2023/05/18 08:38:15;;;;;;;0.37;0.37;;;;;;;;;;5054113;28;20569;-80
2023/05/18 08:40:50;;;;;;;0.30;0.30;;;;;;;;;;5073557;28;20167;-79
2023/05/18 08:43:21;;;;;;;0.37;0.37;;;;;;;;;;5065161;28;20201;-82
2023/05/18 08:45:49;;;;;;;0.40;0.40;;;;;;;;;;5067998;28;20159;-79
2023/05/18 08:48:16;;;;;;;0.37;0.37;;;;;;;;;;5064844;28;20156;-82
2023/05/18 08:50:43;;;;;;;0.40;0.40;;;;;;;;;;5068380;28;20209;-83
2023/05/18 08:53:13;;;;;;;0.30;0.30;;;;;;;;;;5067015;28;20223;-83
2023/05/18 08:55:39;;;;;;;0.40;0.40;;;;;;;;;;5073333;28;20168;-83
2023/05/18 08:58:07;;;;;;;0.30;0.30;;;;;;;;;;5070732;28;20203;-82
2023/05/18 09:00:33;;;;;;;0.47;0.47;;;;;;;;;;5064888;28;20186;-80
2023/05/18 09:02:59;;;;;;;0.47;0.47;;;;;;;;;;5059999;28;21092;-80
2023/05/18 09:05:25;;;;;;;0.40;0.40;;;;;;;;;;5062913;28;20215;-81
2023/05/18 09:07:51;;;;;;;0.53;0.53;;;;;;;;;;5073983;28;20185;-80
2023/05/18 09:10:18;;;;;;;0.40;0.40;;;;;;;;;;5069887;28;20183;-81
2023/05/18 09:12:45;;;;;;;0.40;0.40;;;;;;;;;;5073197;28;20211;-85
2023/05/18 09:15:12;;;;;;;0.40;0.40;;;;;;;;;;5065835;28;20164;-81
2023/05/18 09:17:38;;;;;;;0.43;0.43;;;;;;;;;;5052503;28;20223;-81
2023/05/18 09:20:05;;;;;;;0.40;0.40;;;;;;;;;;5053452;28;20699;-81
2023/05/18 09:22:31;;;;;;;0.43;0.43;;;;;;;;;;5051171;28;20211;-82
2023/05/18 09:24:57;;;;;;;0.33;0.33;;;;;;;;;;5048935;28;20176;-81
2023/05/18 09:27:23;;;;;;;0.40;0.40;;;;;;;;;;5047498;28;20656;-81
2023/05/18 09:29:56;;;;;;;0.40;0.40;;;;;;;;;;5044752;28;20651;-82
2023/05/18 09:32:22;;;;;;;0.30;0.30;;;;;;;;;;5043884;28;20253;-81
2023/05/18 09:34:49;;;;;;;0.33;0.33;;;;;;;;;;5044778;28;20171;-82
2023/05/18 09:37:16;;;;;;;0.40;0.40;;;;;;;;;;5049269;28;20265;-81
2023/05/18 09:39:42;;;;;;;0.40;0.40;;;;;;;;;;5054320;28;20183;-80
2023/05/18 09:42:08;;;;;;;0.43;0.43;;;;;;;;;;5051627;28;20183;-80
2023/05/18 09:44:34;;;;;;;0.40;0.40;;;;;;;;;;5042667;28;20175;-83
2023/05/18 09:47:01;;;;;;;0.50;0.50;;;;;;;;;;5050976;28;20700;-79
2023/05/18 09:49:30;;;;;;;0.53;0.53;;;;;;;;;;5044298;28;20163;-82
2023/05/18 09:51:59;;;;;;;0.40;0.40;;;;;;;;;;5051135;28;20238;-82
2023/05/18 09:54:25;;;;;;;0.47;0.47;;;;;;;;;;5039161;28;20188;-82
2023/05/18 09:56:51;;;;;;;0.40;0.40;;;;;;;;;;5050643;28;20200;-82
2023/05/18 09:59:17;;;;;;;0.33;0.33;;;;;;;;;;5040411;28;20214;-80
2023/05/18 10:01:54;;;;;;;0.40;0.40;;;;;;;;;;5055627;28;20296;-80
2023/05/18 10:04:20;;;;;;;0.40;0.40;;;;;;;;;;5037235;28;20254;-80
2023/05/18 10:06:49;;;;;;;0.47;0.47;;;;;;;;;;5050898;28;20180;-81
2023/05/18 10:09:15;;;;;;;0.37;0.37;;;;;;;;;;5042759;28;20179;-80
2023/05/18 10:11:42;;;;;;;0.50;0.50;;;;;;;;;;5047730;28;20282;-81
2023/05/18 10:14:11;;;;;;;0.50;0.50;;;;;;;;;;5039140;28;20290;-81
2023/05/18 10:16:37;;;;;;;0.37;0.37;;;;;;;;;;5047608;28;20175;-85
2023/05/18 10:19:05;;;;;;;0.40;0.40;;;;;;;;;;5048904;28;20175;-83
2023/05/18 10:21:33;;;;;;;0.40;0.40;;;;;;;;;;5006348;28;1069901;-82
2023/05/18 10:24:03;;;;;;;0.40;0.40;;;;;;;;;;5043707;28;20199;-80
2023/05/18 10:26:29;;;;;;;0.40;0.40;;;;;;;;;;5042872;28;20170;-80
2023/05/18 10:28:56;;;;;;;0.40;0.40;;;;;;;;;;5040813;28;20168;-80
2023/05/18 10:31:22;;;;;;;0.40;0.40;;;;;;;;;;5042840;28;20201;-80
2023/05/18 10:33:49;;;;;;;0.37;0.37;;;;;;;;;;5040573;28;20300;-81
2023/05/18 10:36:17;;;;;;;0.30;0.30;;;;;;;;;;5049762;28;20656;-81
2023/05/18 10:38:44;;;;;;;0.50;0.50;;;;;;;;;;5038227;28;20286;-80
2023/05/18 10:41:11;;;;;;;0.30;0.30;;;;;;;;;;5044270;28;20202;-80
2023/05/18 10:43:41;;;;;;;0.37;0.37;;;;;;;;;;5043528;28;20253;-80
2023/05/18 10:46:07;;;;;;;0.30;0.30;;;;;;;;;;5038755;28;20183;-80
2023/05/18 10:48:37;;;;;;;0.37;0.37;;;;;;;;;;5049161;28;20179;-80
2023/05/18 10:51:05;;;;;;;0.40;0.40;;;;;;;;;;5040101;28;20187;-81
2023/05/18 10:53:32;;;;;;;0.40;0.40;;;;;;;;;;5041658;28;20595;-81
2023/05/18 10:55:58;;;;;;;0.40;0.40;;;;;;;;;;5048058;28;20183;-81
2023/05/18 10:58:25;;;;;;;0.30;0.30;;;;;;;;;;5036952;28;20223;-81
2023/05/18 11:00:53;;;;;;;0.40;0.40;;;;;;;;;;5051144;28;20175;-81
2023/05/18 11:03:21;;;;;;;0.40;0.40;;;;;;;;;;5041178;28;20198;-80
2023/05/18 11:05:53;;;;;;;0.40;0.40;;;;;;;;;;5040647;28;20176;-82
2023/05/18 11:08:25;;;;;;;0.30;0.30;;;;;;;;;;5050062;28;20171;-81
2023/05/18 11:10:59;;;;;;;0.40;0.40;;;;;;;;;;5085253;22;20712;-88
2023/05/18 11:13:28;;;;;;;0.40;0.40;;;;;;;;;;5072825;28;20220;-87
2023/05/18 11:15:54;;;;;;;0.40;0.40;;;;;;;;;;5071857;28;20599;-88
2023/05/18 11:18:26;;;;;;;0.40;0.40;;;;;;;;;;5073256;28;20205;-88
2023/05/18 11:20:52;;;;;;;0.40;0.40;;;;;;;;;;5072423;28;20270;-88
2023/05/18 11:23:19;;;;;;;0.30;0.30;;;;;;;;;;5072305;28;20225;-89
2023/05/18 11:25:48;;;;;;;0.40;0.40;;;;;;;;;;5074032;28;20170;-86
2023/05/18 11:28:14;;;;;;;0.40;0.40;;;;;;;;;;5090838;28;20234;-90
2023/05/18 11:30:40;;;;;;;0.30;0.30;;;;;;;;;;5092482;28;20186;-87
2023/05/18 11:33:11;;;;;;;0.30;0.30;;;;;;;;;;5090730;28;20203;-88
2023/05/18 11:35:56;;;;;;;0.30;0.30;;;;;;;;;;5090841;28;20193;-87
2023/05/18 11:38:22;;;;;;;0.30;0.30;;;;;;;;;;5084683;28;20229;-86
2023/05/18 11:40:49;;;;;;;0.40;0.40;;;;;;;;;;5075594;28;20179;-86
2023/05/18 11:43:21;;;;;;;0.40;0.40;;;;;;;;;;5073495;28;20202;-86
2023/05/18 11:45:52;;;;;;;0.40;0.40;;;;;;;;;;5073992;28;20178;-86
2023/05/18 11:48:19;;;;;;;0.30;0.30;;;;;;;;;;5073659;28;20178;-88
2023/05/18 11:50:46;;;;;;;0.30;0.30;;;;;;;;;;5074155;28;20194;-86
2023/05/18 11:53:16;;;;;;;0.30;0.30;;;;;;;;;;5073178;28;20198;-86
2023/05/18 11:55:42;;;;;;;0.30;0.30;;;;;;;;;;5074071;28;20178;-86
2023/05/18 11:58:09;;;;;;;0.30;0.30;;;;;;;;;;5074012;28;20210;-85
2023/05/18 12:00:36;;;;;;;0.33;0.33;;;;;;;;;;5074188;28;20675;-86
2023/05/18 12:03:02;;;;;;;0.40;0.40;;;;;;;;;;5073728;28;20579;-87
2023/05/18 12:05:34;;;;;;;0.20;0.20;;;;;;;;;;5073264;28;20633;-86
2023/05/18 12:08:00;;;;;;;0.30;0.30;;;;;;;;;;5074804;28;20199;-86
2023/05/18 12:10:26;;;;;;;0.30;0.30;;;;;;;;;;5073234;28;20174;-87
2023/05/18 12:12:52;;;;;;;0.40;0.40;;;;;;;;;;5074302;28;20202;-86
2023/05/18 12:15:21;;;;;;;0.30;0.30;;;;;;;;;;5077258;28;20203;-86
2023/05/18 12:17:48;;;;;;;0.47;0.47;;;;;;;;;;5077421;28;20215;-86
2023/05/18 12:20:23;;;;;;;0.33;0.33;;;;;;;;;;5076005;28;20180;-87
2023/05/18 12:22:56;;;;;;;0.30;0.30;;;;;;;;;;5074557;28;20696;-86
2023/05/18 12:25:23;;;;;;;0.30;0.30;;;;;;;;;;5075471;28;20183;-85
2023/05/18 12:27:50;;;;;;;0.30;0.30;;;;;;;;;;5078375;28;20186;-87
2023/05/18 12:30:17;;;;;;;0.30;0.30;;;;;;;;;;5078188;28;20167;-86
2023/05/18 12:32:44;;;;;;;0.30;0.30;;;;;;;;;;5076900;28;20202;-86
2023/05/18 12:35:10;;;;;;;0.40;0.40;;;;;;;;;;5077800;28;20178;-88
2023/05/18 12:37:46;;;;;;;0.40;0.40;;;;;;;;;;5077274;28;20238;-85
2023/05/18 12:40:13;;;;;;;0.33;0.33;;;;;;;;;;5076336;28;20184;-86
2023/05/18 12:42:39;;;;;;;0.30;0.30;;;;;;;;;;5075614;28;20681;-85
2023/05/18 12:45:05;;;;;;;0.37;0.37;;;;;;;;;;5077074;28;20182;-87
2023/05/18 12:47:32;;;;;;;0.40;0.40;;;;;;;;;;5076642;28;20437;-85
2023/05/18 12:50:00;;;;;;;0.30;0.30;;;;;;;;;;5075917;28;20174;-86
2023/05/18 12:52:26;;;;;;;0.20;0.20;;;;;;;;;;5079019;28;20358;-87
2023/05/18 12:54:59;;;;;;;0.30;0.30;;;;;;;;;;5077492;28;20902;-86
2023/05/18 12:57:26;;;;;;;0.40;0.40;;;;;;;;;;5079170;28;20215;-86
2023/05/18 12:59:53;;;;;;;0.40;0.40;;;;;;;;;;5080839;28;20597;-86
2023/05/18 13:02:29;;;;;;;0.30;0.30;;;;;;;;;;5077689;28;20251;-87
2023/05/18 13:05:02;;;;;;;0.33;0.33;;;;;;;;;;5075855;28;20171;-88
2023/05/18 13:07:27;;;;;;;0.30;0.30;;;;;;;;;;5078484;28;20182;-85
2023/05/18 13:09:55;;;;;;;0.30;0.30;;;;;;;;;;5076656;28;20175;-87
2023/05/18 13:12:35;;;;;;;0.40;0.40;;;;;;;;;;5076471;28;20222;-86
2023/05/18 13:15:07;;;;;;;0.30;0.30;;;;;;;;;;5079230;28;20178;-87
2023/05/18 13:17:33;;;;;;;0.40;0.40;;;;;;;;;;5078749;28;20217;-87
2023/05/18 13:19:59;;;;;;;0.40;0.40;;;;;;;;;;5080728;28;20178;-86
2023/05/18 13:22:25;;;;;;;0.30;0.30;;;;;;;;;;5081721;28;20182;-86
2023/05/18 13:24:51;;;;;;;0.30;0.30;;;;;;;;;;5088175;28;20175;-87
2023/05/18 13:27:17;;;;;;;0.30;0.30;;;;;;;;;;5095808;28;20232;-87
2023/05/18 13:29:43;;;;;;;0.30;0.30;;;;;;;;;;5087172;28;20174;-86
2023/05/18 13:32:09;;;;;;;0.30;0.30;;;;;;;;;;5075902;28;20248;-86
2023/05/18 13:34:35;;;;;;;0.30;0.30;;;;;;;;;;5076073;28;20181;-86
2023/05/18 13:37:01;;;;;;;0.30;0.30;;;;;;;;;;5074485;28;20222;-86
2023/05/18 13:39:27;;;;;;;0.40;0.40;;;;;;;;;;5075116;28;20182;-86
2023/05/18 13:41:54;;;;;;;0.40;0.40;;;;;;;;;;5075542;28;20179;-88
2023/05/18 13:44:20;;;;;;;0.30;0.30;;;;;;;;;;5076291;28;20205;-85
2023/05/18 13:46:46;;;;;;;0.37;0.37;;;;;;;;;;5079603;28;20174;-85
2023/05/18 13:49:12;;;;;;;0.30;0.30;;;;;;;;;;5077201;28;20174;-86
2023/05/18 13:51:38;;;;;;;0.40;0.40;;;;;;;;;;5076222;28;20542;-86
2023/05/18 13:54:04;;;;;;;0.40;0.40;;;;;;;;;;5074847;28;20193;-87
2023/05/18 13:56:30;;;;;;;0.30;0.30;;;;;;;;;;5074547;28;20178;-85
2023/05/18 13:58:56;;;;;;;0.30;0.30;;;;;;;;;;5073731;28;20229;-85
2023/05/18 14:01:22;;;;;;;0.30;0.30;;;;;;;;;;5075562;28;20170;-87
2023/05/18 14:03:48;;;;;;;0.30;0.30;;;;;;;;;;5074727;28;20202;-85
2023/05/18 14:06:14;;;;;;;0.40;0.40;;;;;;;;;;5075879;28;20178;-85
2023/05/18 14:08:40;;;;;;;0.40;0.40;;;;;;;;;;5074439;28;20188;-86
2023/05/18 14:11:06;;;;;;;0.40;0.40;;;;;;;;;;5074450;28;20216;-86
2023/05/18 14:13:32;;;;;;;0.30;0.30;;;;;;;;;;5073956;28;20202;-86
2023/05/18 14:15:58;;;;;;;0.30;0.30;;;;;;;;;;5076103;28;20270;-85
2023/05/18 14:18:24;;;;;;;0.50;0.50;;;;;;;;;;5076404;28;20266;-87
2023/05/18 14:20:50;;;;;;;0.40;0.40;;;;;;;;;;5076961;28;20189;-86
2023/05/18 14:23:16;;;;;;;0.40;0.40;;;;;;;;;;5074473;28;20205;-86
2023/05/18 14:25:44;;;;;;;0.37;0.37;;;;;;;;;;5074348;28;20174;-85
2023/05/18 14:28:10;;;;;;;0.50;0.50;;;;;;;;;;5075114;28;20179;-85
2023/05/18 14:30:36;;;;;;;0.50;0.50;;;;;;;;;;5075193;28;20660;-85
2023/05/18 14:33:02;;;;;;;0.30;0.30;;;;;;;;;;5073770;28;20206;-88
2023/05/18 14:35:28;;;;;;;0.40;0.40;;;;;;;;;;5074160;28;20241;-88
2023/05/18 14:37:54;;;;;;;0.30;0.30;;;;;;;;;;5073758;28;20237;-86
2023/05/18 14:40:20;;;;;;;0.43;0.43;;;;;;;;;;5074572;28;20170;-85
2023/05/18 14:42:46;;;;;;;0.40;0.40;;;;;;;;;;5074664;28;20222;-86